sensor_id;sensor_type;location;lat;lon;timestamp;pressure;altitude;pressure_sealevel;temperature;humidity
25080;BME280;13071;48.868;9.996;2023-01-25T00:02:13;98068.91;;;1.22;100.00
25080;BME280;13071;48.868;9.996;2023-01-25T00:04:40;98066.13;;;1.17;100.00
25080;BME280;13071;48.868;9.996;2023-01-25T00:07:07;98066.09;;;1.29;100.00
25080;BME280;13071;48.868;9.996;2023-01-25T00:09:34;98057.06;;;1.30;100.00
25080;BME280;13071;48.868;9.996;2023-01-25T00:12:01;98057.06;;;1.30;100.00
25080;BME280;13071;48.868;9.996;2023-01-25T00:14:28;98055.09;;;1.25;100.00
25080;BME280;13071;48.868;9.996;2023-01-25T00:16:54;98059.72;;;1.30;100.00
25080;BME280;13071;48.868;9.996;2023-01-25T00:19:21;98051.38;;;1.26;100.00
25080;BME280;13071;48.868;9.996;2023-01-25T00:21:48;98054.38;;;1.30;100.00
25080;BME280;13071;48.868;9.996;2023-01-25T00:24:14;98058.91;;;1.29;100.00
25080;BME280;13071;48.868;9.996;2023-01-25T00:26:43;98054.50;;;1.35;100.00
25080;BME280;13071;48.868;9.996;2023-01-25T00:29:11;98050.69;;;1.31;100.00
25080;BME280;13071;48.868;9.996;2023-01-25T00:31:45;98056.81;;;1.32;100.00
25080;BME280;13071;48.868;9.996;2023-01-25T00:34:42;98050.44;;;1.33;100.00
25080;BME280;13071;48.868;9.996;2023-01-25T00:37:18;98050.56;;;1.38;100.00
25080;BME280;13071;48.868;9.996;2023-01-25T00:39:46;98051.81;;;1.35;100.00
25080;BME280;13071;48.868;9.996;2023-01-25T00:42:15;98040.22;;;1.29;100.00
25080;BME280;13071;48.868;9.996;2023-01-25T00:44:42;98054.88;;;1.27;100.00
25080;BME280;13071;48.868;9.996;2023-01-25T00:47:09;98049.53;;;1.27;100.00
25080;BME280;13071;48.868;9.996;2023-01-25T00:49:37;98042.69;;;1.31;100.00
25080;BME280;13071;48.868;9.996;2023-01-25T00:52:05;98040.84;;;1.20;100.00
25080;BME280;13071;48.868;9.996;2023-01-25T00:54:31;98038.03;;;1.38;100.00
25080;BME280;13071;48.868;9.996;2023-01-25T00:56:58;98042.28;;;1.39;100.00
25080;BME280;13071;48.868;9.996;2023-01-25T00:59:26;98039.31;;;1.24;100.00
25080;BME280;13071;48.868;9.996;2023-01-25T01:01:53;98035.84;;;1.23;100.00
25080;BME280;13071;48.868;9.996;2023-01-25T01:04:20;98043.63;;;1.25;100.00
25080;BME280;13071;48.868;9.996;2023-01-25T01:06:49;98050.69;;;1.31;100.00
25080;BME280;13071;48.868;9.996;2023-01-25T01:09:17;98041.44;;;1.22;100.00
25080;BME280;13071;48.868;9.996;2023-01-25T01:11:44;98046.88;;;1.27;100.00
25080;BME280;13071;48.868;9.996;2023-01-25T01:14:11;98044.66;;;1.24;100.00
25080;BME280;13071;48.868;9.996;2023-01-25T01:16:39;98044.31;;;1.20;100.00
25080;BME280;13071;48.868;9.996;2023-01-25T01:19:05;98038.75;;;1.22;100.00
25080;BME280;13071;48.868;9.996;2023-01-25T01:21:32;98044.22;;;1.15;100.00
25080;BME280;13071;48.868;9.996;2023-01-25T01:23:58;98045.63;;;1.06;100.00
25080;BME280;13071;48.868;9.996;2023-01-25T01:26:25;98041.44;;;1.10;100.00
25080;BME280;13071;48.868;9.996;2023-01-25T01:28:52;98043.19;;;1.05;100.00
25080;BME280;13071;48.868;9.996;2023-01-25T01:31:20;98041.34;;;1.05;100.00
25080;BME280;13071;48.868;9.996;2023-01-25T01:33:49;98035.78;;;1.07;100.00
25080;BME280;13071;48.868;9.996;2023-01-25T01:36:17;98039.47;;;1.06;100.00
25080;BME280;13071;48.868;9.996;2023-01-25T01:38:44;98040.78;;;1.03;100.00
25080;BME280;13071;48.868;9.996;2023-01-25T01:41:11;98040.41;;;1.00;100.00
25080;BME280;13071;48.868;9.996;2023-01-25T01:43:38;98043.66;;;1.02;100.00
25080;BME280;13071;48.868;9.996;2023-01-25T01:46:08;98038.56;;;1.00;100.00
25080;BME280;13071;48.868;9.996;2023-01-25T01:48:40;98047.16;;;1.02;100.00
25080;BME280;13071;48.868;9.996;2023-01-25T01:51:15;98050.97;;;1.06;100.00
25080;BME280;13071;48.868;9.996;2023-01-25T01:53:45;98038.78;;;1.10;100.00
25080;BME280;13071;48.868;9.996;2023-01-25T01:56:15;98038.56;;;1.00;100.00
25080;BME280;13071;48.868;9.996;2023-01-25T01:58:43;98044.94;;;0.99;100.00
25080;BME280;13071;48.868;9.996;2023-01-25T02:01:11;98043.06;;;1.00;100.00
25080;BME280;13071;48.868;9.996;2023-01-25T02:03:39;98044.59;;;1.07;100.00
25080;BME280;13071;48.868;9.996;2023-01-25T02:06:09;98035.34;;;0.98;100.00
25080;BME280;13071;48.868;9.996;2023-01-25T02:08:40;98029.84;;;1.05;100.00
25080;BME280;13071;48.868;9.996;2023-01-25T02:11:08;98034.75;;;0.96;100.00
25080;BME280;13071;48.868;9.996;2023-01-25T02:13:36;98030.44;;;0.95;100.00
25080;BME280;13071;48.868;9.996;2023-01-25T02:16:03;98027.78;;;1.07;100.00
25080;BME280;13071;48.868;9.996;2023-01-25T02:18:30;98038.09;;;1.03;100.00
25080;BME280;13071;48.868;9.996;2023-01-25T02:20:58;98035.78;;;1.07;100.00
25080;BME280;13071;48.868;9.996;2023-01-25T02:23:28;98026.75;;;0.96;100.00
25080;BME280;13071;48.868;9.996;2023-01-25T02:26:00;98028.94;;;0.99;100.00
25080;BME280;13071;48.868;9.996;2023-01-25T02:28:32;98030.44;;;0.95;100.00
25080;BME280;13071;48.868;9.996;2023-01-25T02:31:01;98043.69;;;0.78;100.00
25080;BME280;13071;48.868;9.996;2023-01-25T02:33:28;98029.78;;;0.88;100.00
25080;BME280;13071;48.868;9.996;2023-01-25T02:35:58;98029.63;;;0.95;100.00
25080;BME280;13071;48.868;9.996;2023-01-25T02:38:25;98031.25;;;1.07;100.00
25080;BME280;13071;48.868;9.996;2023-01-25T02:40:58;98028.38;;;0.97;100.00
25080;BME280;13071;48.868;9.996;2023-01-25T02:43:30;98016.41;;;1.00;100.00
25080;BME280;13071;48.868;9.996;2023-01-25T02:46:02;98022.34;;;1.02;100.00
25080;BME280;13071;48.868;9.996;2023-01-25T02:48:29;98022.44;;;1.07;100.00
25080;BME280;13071;48.868;9.996;2023-01-25T02:50:55;98015.59;;;1.11;100.00
25080;BME280;13071;48.868;9.996;2023-01-25T02:53:22;98023.47;;;1.06;100.00
25080;BME280;13071;48.868;9.996;2023-01-25T02:55:48;98021.53;;;1.01;100.00
25080;BME280;13071;48.868;9.996;2023-01-25T02:58:15;98014.66;;;1.05;100.00
25080;BME280;13071;48.868;9.996;2023-01-25T03:00:43;98010.16;;;1.06;100.00
25080;BME280;13071;48.868;9.996;2023-01-25T03:03:09;98009.81;;;1.02;100.00
25080;BME280;13071;48.868;9.996;2023-01-25T03:05:36;98000.72;;;1.15;100.00
25080;BME280;13071;48.868;9.996;2023-01-25T03:08:03;98007.50;;;1.06;100.00
25080;BME280;13071;48.868;9.996;2023-01-25T03:10:29;98012.22;;;1.04;100.00
25080;BME280;13071;48.868;9.996;2023-01-25T03:12:56;98000.19;;;1.01;100.00
25080;BME280;13071;48.868;9.996;2023-01-25T03:15:22;98006.94;;;0.92;100.00
25080;BME280;13071;48.868;9.996;2023-01-25T03:17:50;98001.50;;;0.87;100.00
25080;BME280;13071;48.868;9.996;2023-01-25T03:20:17;98002.53;;;0.86;100.00
25080;BME280;13071;48.868;9.996;2023-01-25T03:22:44;97999.06;;;0.85;100.00
25080;BME280;13071;48.868;9.996;2023-01-25T03:25:10;98003.84;;;0.83;100.00
25080;BME280;13071;48.868;9.996;2023-01-25T03:27:37;98000.59;;;0.81;100.00
25080;BME280;13071;48.868;9.996;2023-01-25T03:30:04;97989.00;;;0.76;100.00
25080;BME280;13071;48.868;9.996;2023-01-25T03:32:31;97980.28;;;0.80;100.00
25080;BME280;13071;48.868;9.996;2023-01-25T03:34:59;97982.38;;;0.90;100.00
25080;BME280;13071;48.868;9.996;2023-01-25T03:37:26;97979.03;;;0.83;100.00
25080;BME280;13071;48.868;9.996;2023-01-25T03:39:55;97976.13;;;0.84;100.00
25080;BME280;13071;48.868;9.996;2023-01-25T03:42:22;97976.00;;;0.91;100.00
25080;BME280;13071;48.868;9.996;2023-01-25T03:44:49;97970.22;;;0.82;100.00
25080;BME280;13071;48.868;9.996;2023-01-25T03:47:15;97976.91;;;0.85;100.00
25080;BME280;13071;48.868;9.996;2023-01-25T03:49:42;97976.59;;;0.81;100.00
25080;BME280;13071;48.868;9.996;2023-01-25T03:52:10;97981.44;;;0.84;100.00
25080;BME280;13071;48.868;9.996;2023-01-25T03:54:36;97980.63;;;0.84;100.00
25080;BME280;13071;48.868;9.996;2023-01-25T03:57:03;97983.41;;;0.89;100.00
25080;BME280;13071;48.868;9.996;2023-01-25T03:59:30;97979.03;;;0.83;100.00
25080;BME280;13071;48.868;9.996;2023-01-25T04:01:56;97976.09;;;0.96;100.00
25080;BME280;13071;48.868;9.996;2023-01-25T04:04:23;97972.16;;;0.99;100.00
25080;BME280;13071;48.868;9.996;2023-01-25T04:06:49;97971.34;;;0.98;100.00
25080;BME280;13071;48.868;9.996;2023-01-25T04:09:17;97971.34;;;0.98;100.00
25080;BME280;13071;48.868;9.996;2023-01-25T04:11:44;97968.91;;;0.97;100.00
25080;BME280;13071;48.868;9.996;2023-01-25T04:14:11;97971.69;;;0.90;100.00
25080;BME280;13071;48.868;9.996;2023-01-25T04:16:37;97964.41;;;0.97;100.00
25080;BME280;13071;48.868;9.996;2023-01-25T04:19:04;97972.28;;;0.92;100.00
25080;BME280;13071;48.868;9.996;2023-01-25T04:21:31;97959.78;;;0.93;100.00
25080;BME280;13071;48.868;9.996;2023-01-25T04:23:57;97964.84;;;0.94;100.00
25080;BME280;13071;48.868;9.996;2023-01-25T04:26:25;97962.78;;;0.96;100.00
25080;BME280;13071;48.868;9.996;2023-01-25T04:28:52;97960.63;;;1.10;100.00
25080;BME280;13071;48.868;9.996;2023-01-25T04:31:18;97961.34;;;1.05;100.00
25080;BME280;13071;48.868;9.996;2023-01-25T04:33:45;97958.84;;;0.99;100.00
25080;BME280;13071;48.868;9.996;2023-01-25T04:36:11;97960.09;;;0.96;100.00
25080;BME280;13071;48.868;9.996;2023-01-25T04:38:38;97958.72;;;0.94;100.00
25080;BME280;13071;48.868;9.996;2023-01-25T04:41:06;97954.16;;;1.06;100.00
25080;BME280;13071;48.868;9.996;2023-01-25T04:43:34;97950.97;;;0.92;100.00
25080;BME280;13071;48.868;9.996;2023-01-25T04:46:01;97946.34;;;0.88;100.00
25080;BME280;13071;48.868;9.996;2023-01-25T04:48:27;97945.63;;;0.92;100.00
25080;BME280;13071;48.868;9.996;2023-01-25T04:50:54;97945.44;;;1.10;100.00
25080;BME280;13071;48.868;9.996;2023-01-25T04:53:20;97942.47;;;1.07;100.00
25080;BME280;13071;48.868;9.996;2023-01-25T04:55:47;97936.31;;;1.06;100.00
25080;BME280;13071;48.868;9.996;2023-01-25T04:58:14;97940.84;;;0.94;100.00
25080;BME280;13071;48.868;9.996;2023-01-25T05:00:42;97932.84;;;1.06;100.00
25080;BME280;13071;48.868;9.996;2023-01-25T05:03:09;97928.44;;;1.00;100.00
25080;BME280;13071;48.868;9.996;2023-01-25T05:05:35;97927.31;;;0.96;100.00
25080;BME280;13071;48.868;9.996;2023-01-25T05:08:02;97927.72;;;1.04;100.00
25080;BME280;13071;48.868;9.996;2023-01-25T05:10:28;97927.16;;;1.02;100.00
25080;BME280;13071;48.868;9.996;2023-01-25T05:12:55;97929.41;;;0.94;100.00
25080;BME280;13071;48.868;9.996;2023-01-25T05:15:21;97933.22;;;0.98;100.00
25080;BME280;13071;48.868;9.996;2023-01-25T05:17:49;97943.88;;;0.98;100.00
25080;BME280;13071;48.868;9.996;2023-01-25T05:20:16;97935.72;;;1.04;100.00
25080;BME280;13071;48.868;9.996;2023-01-25T05:22:43;97935.19;;;0.91;100.00
25080;BME280;13071;48.868;9.996;2023-01-25T05:25:09;97933.56;;;0.90;100.00
25080;BME280;13071;48.868;9.996;2023-01-25T05:27:50;97929.25;;;1.00;100.00
25080;BME280;13071;48.868;9.996;2023-01-25T05:30:16;97937.25;;;1.00;100.00
25080;BME280;13071;48.868;9.996;2023-01-25T05:32:43;97933.22;;;0.98;100.00
25080;BME280;13071;48.868;9.996;2023-01-25T05:35:11;97929.88;;;0.91;100.00
25080;BME280;13071;48.868;9.996;2023-01-25T05:37:37;97927.91;;;0.86;100.00
25080;BME280;13071;48.868;9.996;2023-01-25T05:40:05;97927.09;;;0.85;100.00
25080;BME280;13071;48.868;9.996;2023-01-25T05:42:32;97923.81;;;0.95;100.00
25080;BME280;13071;48.868;9.996;2023-01-25T05:44:59;97927.50;;;1.06;100.00
25080;BME280;13071;48.868;9.996;2023-01-25T05:47:25;97923.91;;;1.00;100.00
25080;BME280;13071;48.868;9.996;2023-01-25T05:49:52;97917.94;;;0.93;100.00
25080;BME280;13071;48.868;9.996;2023-01-25T05:52:20;97917.78;;;1.00;100.00
25080;BME280;13071;48.868;9.996;2023-01-25T05:54:47;97916.50;;;1.02;100.00
25080;BME280;13071;48.868;9.996;2023-01-25T05:57:14;97917.88;;;1.05;100.00
25080;BME280;13071;48.868;9.996;2023-01-25T05:59:40;97912.31;;;1.06;100.00
25080;BME280;13071;48.868;9.996;2023-01-25T06:02:07;97922.03;;;1.12;100.00
25080;BME280;13071;48.868;9.996;2023-01-25T06:04:33;97912.22;;;1.01;100.00
25080;BME280;13071;48.868;9.996;2023-01-25T06:07:00;97910.88;;;1.15;100.00
25080;BME280;13071;48.868;9.996;2023-01-25T06:09:28;97906.59;;;1.14;100.00
25080;BME280;13071;48.868;9.996;2023-01-25T06:11:54;97912.41;;;1.11;100.00
25080;BME280;13071;48.868;9.996;2023-01-25T06:14:21;97911.09;;;1.14;100.00
25080;BME280;13071;48.868;9.996;2023-01-25T06:16:48;97906.25;;;1.11;100.00
25080;BME280;13071;48.868;9.996;2023-01-25T06:19:15;97907.06;;;1.11;100.00
25080;BME280;13071;48.868;9.996;2023-01-25T06:21:41;97905.69;;;1.09;100.00
25080;BME280;13071;48.868;9.996;2023-01-25T06:24:08;97895.09;;;0.97;100.00
25080;BME280;13071;48.868;9.996;2023-01-25T06:26:36;97897.84;;;1.02;100.00
25080;BME280;13071;48.868;9.996;2023-01-25T06:29:03;97899.22;;;1.05;100.00
25080;BME280;13071;48.868;9.996;2023-01-25T06:31:30;97898.97;;;1.06;100.00
25080;BME280;13071;48.868;9.996;2023-01-25T06:33:57;97893.16;;;1.09;100.00
25080;BME280;13071;48.868;9.996;2023-01-25T06:36:25;97894.22;;;1.08;100.00
25080;BME280;13071;48.868;9.996;2023-01-25T06:38:51;97895.28;;;1.07;100.00
25080;BME280;13071;48.868;9.996;2023-01-25T06:41:18;97904.50;;;1.16;100.00
25080;BME280;13071;48.868;9.996;2023-01-25T06:43:49;97895.91;;;1.14;100.00
25080;BME280;13071;48.868;9.996;2023-01-25T06:46:16;97894.31;;;1.13;100.00
25080;BME280;13071;48.868;9.996;2023-01-25T06:48:43;97894.06;;;1.15;100.00
25080;BME280;13071;48.868;9.996;2023-01-25T06:51:11;97908.34;;;1.09;100.00
25080;BME280;13071;48.868;9.996;2023-01-25T06:53:39;97906.50;;;1.09;100.00
25080;BME280;13071;48.868;9.996;2023-01-25T06:56:08;97902.13;;;1.03;100.00
25080;BME280;13071;48.868;9.996;2023-01-25T06:58:35;97896.94;;;0.97;100.00
25080;BME280;13071;48.868;9.996;2023-01-25T07:01:05;97892.84;;;1.06;100.00
25080;BME280;13071;48.868;9.996;2023-01-25T07:03:32;97896.84;;;0.92;100.00
25080;BME280;13071;48.868;9.996;2023-01-25T07:06:00;97899.81;;;0.95;100.00
25080;BME280;13071;48.868;9.996;2023-01-25T07:08:27;97900.19;;;0.99;100.00
25080;BME280;13071;48.868;9.996;2023-01-25T07:10:54;97894.59;;;1.00;100.00
25080;BME280;13071;48.868;9.996;2023-01-25T07:13:22;97891.09;;;1.11;99.61
25080;BME280;13071;48.868;9.996;2023-01-25T07:15:53;97896.00;;;1.03;99.56
25080;BME280;13071;48.868;9.996;2023-01-25T07:18:21;97904.00;;;1.03;99.58
25080;BME280;13071;48.868;9.996;2023-01-25T07:20:48;97891.69;;;1.02;100.00
25080;BME280;13071;48.868;9.996;2023-01-25T07:23:15;97889.34;;;1.05;99.93
25080;BME280;13071;48.868;9.996;2023-01-25T07:25:43;97887.44;;;0.89;99.53
25080;BME280;13071;48.868;9.996;2023-01-25T07:28:10;97879.94;;;0.86;100.00
25080;BME280;13071;48.868;9.996;2023-01-25T07:30:36;97881.06;;;0.90;100.00
25080;BME280;13071;48.868;9.996;2023-01-25T07:33:03;97882.38;;;0.88;99.74
25080;BME280;13071;48.868;9.996;2023-01-25T07:35:31;97881.53;;;0.99;99.53
25080;BME280;13071;48.868;9.996;2023-01-25T07:37:57;97872.31;;;1.06;99.34
25080;BME280;13071;48.868;9.996;2023-01-25T07:40:24;97879.19;;;1.02;99.60
25080;BME280;13071;48.868;9.996;2023-01-25T07:42:51;97871.41;;;1.01;100.00
25080;BME280;13071;48.868;9.996;2023-01-25T07:45:18;97876.53;;;1.02;100.00
25080;BME280;13071;48.868;9.996;2023-01-25T07:47:45;97878.47;;;1.07;100.00
25080;BME280;13071;48.868;9.996;2023-01-25T07:50:12;97882.03;;;1.12;100.00
25080;BME280;13071;48.868;9.996;2023-01-25T07:52:40;97877.03;;;1.16;100.00
25080;BME280;13071;48.868;9.996;2023-01-25T07:55:07;97881.41;;;1.22;100.00
25080;BME280;13071;48.868;9.996;2023-01-25T07:57:34;97876.41;;;1.25;100.00
25080;BME280;13071;48.868;9.996;2023-01-25T08:00:00;97876.50;;;1.30;100.00
25080;BME280;13071;48.868;9.996;2023-01-25T08:02:28;97886.84;;;1.27;98.48
25080;BME280;13071;48.868;9.996;2023-01-25T08:04:54;97887.69;;;1.16;97.77
25080;BME280;13071;48.868;9.996;2023-01-25T08:07:21;97881.94;;;1.07;98.27
25080;BME280;13071;48.868;9.996;2023-01-25T08:09:49;97875.56;;;1.08;98.63
25080;BME280;13071;48.868;9.996;2023-01-25T08:12:16;97881.69;;;1.09;98.71
25080;BME280;13071;48.868;9.996;2023-01-25T08:14:43;97869.44;;;1.08;98.41
25080;BME280;13071;48.868;9.996;2023-01-25T08:17:09;97876.13;;;1.10;98.36
25080;BME280;13071;48.868;9.996;2023-01-25T08:19:36;97870.75;;;1.22;98.43
25080;BME280;13071;48.868;9.996;2023-01-25T08:22:03;97867.50;;;1.20;97.56
25080;BME280;13071;48.868;9.996;2023-01-25T08:24:32;97875.41;;;1.15;98.56
25080;BME280;13071;48.868;9.996;2023-01-25T08:27:00;97882.13;;;1.17;98.26
25080;BME280;13071;48.868;9.996;2023-01-25T08:29:26;97877.22;;;1.26;97.64
25080;BME280;13071;48.868;9.996;2023-01-25T08:31:53;97879.28;;;1.24;98.33
25080;BME280;13071;48.868;9.996;2023-01-25T08:34:19;97882.06;;;1.29;97.84
25080;BME280;13071;48.868;9.996;2023-01-25T08:36:46;97881.09;;;1.18;98.59
25080;BME280;13071;48.868;9.996;2023-01-25T08:39:14;97877.31;;;1.03;99.50
25080;BME280;13071;48.868;9.996;2023-01-25T08:41:42;97880.59;;;1.21;98.90
25080;BME280;13071;48.868;9.996;2023-01-25T08:44:11;97881.63;;;1.20;98.09
25080;BME280;13071;48.868;9.996;2023-01-25T08:46:38;97883.03;;;1.23;98.38
25080;BME280;13071;48.868;9.996;2023-01-25T08:49:04;97883.03;;;1.23;98.51
25080;BME280;13071;48.868;9.996;2023-01-25T08:51:32;97884.63;;;1.24;98.81
25080;BME280;13071;48.868;9.996;2023-01-25T08:54:03;97880.91;;;1.25;99.18
25080;BME280;13071;48.868;9.996;2023-01-25T08:56:30;97875.81;;;1.23;98.86
25080;BME280;13071;48.868;9.996;2023-01-25T08:58:56;97868.06;;;1.22;98.47
25080;BME280;13071;48.868;9.996;2023-01-25T09:01:24;97865.91;;;1.36;98.56
25080;BME280;13071;48.868;9.996;2023-01-25T09:03:52;97857.41;;;1.22;98.57
25080;BME280;13071;48.868;9.996;2023-01-25T09:06:19;97859.41;;;1.15;98.67
25080;BME280;13071;48.868;9.996;2023-01-25T09:08:46;97852.81;;;1.17;99.36
25080;BME280;13071;48.868;9.996;2023-01-25T09:11:14;97850.88;;;1.29;98.52
25080;BME280;13071;48.868;9.996;2023-01-25T09:13:41;97852.16;;;1.27;97.97
25080;BME280;13071;48.868;9.996;2023-01-25T09:16:10;97852.41;;;1.25;98.58
25080;BME280;13071;48.868;9.996;2023-01-25T09:18:40;97845.44;;;1.24;98.07
25080;BME280;13071;48.868;9.996;2023-01-25T09:21:08;97858.13;;;1.17;98.45
25080;BME280;13071;48.868;9.996;2023-01-25T09:23:35;97844.31;;;1.20;98.41
25080;BME280;13071;48.868;9.996;2023-01-25T09:26:03;97847.06;;;1.25;98.49
25080;BME280;13071;48.868;9.996;2023-01-25T09:28:31;97845.34;;;1.19;98.87
25080;BME280;13071;48.868;9.996;2023-01-25T09:30:59;97835.91;;;1.12;98.86
25080;BME280;13071;48.868;9.996;2023-01-25T09:33:26;97829.03;;;1.16;99.06
25080;BME280;13071;48.868;9.996;2023-01-25T09:35:55;97836.72;;;1.29;99.17
25080;BME280;13071;48.868;9.996;2023-01-25T09:38:21;97836.97;;;1.27;98.05
25080;BME280;13071;48.868;9.996;2023-01-25T09:40:56;97840.50;;;1.16;98.19
25080;BME280;13071;48.868;9.996;2023-01-25T09:43:35;97827.09;;;1.11;98.69
25080;BME280;13071;48.868;9.996;2023-01-25T09:46:15;97833.09;;;1.18;98.75
25080;BME280;13071;48.868;9.996;2023-01-25T09:48:51;97833.47;;;1.10;98.11
25080;BME280;13071;48.868;9.996;2023-01-25T09:51:25;97837.44;;;1.08;98.59
25080;BME280;13071;48.868;9.996;2023-01-25T09:53:55;97841.13;;;1.07;99.39
25080;BME280;13071;48.868;9.996;2023-01-25T09:56:24;97832.19;;;1.13;99.80
25080;BME280;13071;48.868;9.996;2023-01-25T09:58:56;97830.34;;;1.13;99.79
25080;BME280;13071;48.868;9.996;2023-01-25T10:01:26;97831.94;;;1.14;99.38
25080;BME280;13071;48.868;9.996;2023-01-25T10:03:58;97830.41;;;1.18;99.82
25080;BME280;13071;48.868;9.996;2023-01-25T10:06:36;97823.75;;;1.04;100.00
25080;BME280;13071;48.868;9.996;2023-01-25T10:09:10;97831.47;;;1.17;100.00
25080;BME280;13071;48.868;9.996;2023-01-25T10:11:39;97823.38;;;1.12;100.00
25080;BME280;13071;48.868;9.996;2023-01-25T10:14:12;97824.91;;;1.08;99.91
25080;BME280;13071;48.868;9.996;2023-01-25T10:16:50;97821.75;;;1.11;100.00
25080;BME280;13071;48.868;9.996;2023-01-25T10:19:25;97819.94;;;1.00;100.00
25080;BME280;13071;48.868;9.996;2023-01-25T10:21:59;97819.50;;;1.20;100.00
25080;BME280;13071;48.868;9.996;2023-01-25T10:24:38;97817.56;;;1.15;100.00
25080;BME280;13071;48.868;9.996;2023-01-25T10:27:18;97821.13;;;1.21;100.00
25080;BME280;13071;48.868;9.996;2023-01-25T10:29:48;97811.97;;;1.17;100.00
25080;BME280;13071;48.868;9.996;2023-01-25T10:32:18;97817.41;;;1.22;100.00
25080;BME280;13071;48.868;9.996;2023-01-25T10:34:50;97808.09;;;1.08;100.00
25080;BME280;13071;48.868;9.996;2023-01-25T10:37:22;97809.22;;;1.12;100.00
25080;BME280;13071;48.868;9.996;2023-01-25T10:39:55;97807.75;;;1.04;100.00
25080;BME280;13071;48.868;9.996;2023-01-25T10:42:25;97804.63;;;1.07;100.00
25080;BME280;13071;48.868;9.996;2023-01-25T10:44:52;97798.25;;;1.08;100.00
25080;BME280;13071;48.868;9.996;2023-01-25T10:47:22;97796.38;;;1.09;100.00
25080;BME280;13071;48.868;9.996;2023-01-25T10:49:51;97785.31;;;1.17;100.00
25080;BME280;13071;48.868;9.996;2023-01-25T10:52:21;97794.13;;;1.17;100.00
25080;BME280;13071;48.868;9.996;2023-01-25T10:55:06;97787.19;;;1.16;100.00
25080;BME280;13071;48.868;9.996;2023-01-25T10:57:38;97787.81;;;1.23;100.00
25080;BME280;13071;48.868;9.996;2023-01-25T11:00:19;97782.97;;;1.20;100.00
25080;BME280;13071;48.868;9.996;2023-01-25T11:02:48;97778.59;;;1.14;100.00
25080;BME280;13071;48.868;9.996;2023-01-25T11:05:24;97773.25;;;1.14;100.00
25080;BME280;13071;48.868;9.996;2023-01-25T11:07:52;97773.44;;;1.24;100.00
25080;BME280;13071;48.868;9.996;2023-01-25T11:10:28;97774.31;;;1.30;100.00
25080;BME280;13071;48.868;9.996;2023-01-25T11:13:17;97770.06;;;1.12;100.00
25080;BME280;13071;48.868;9.996;2023-01-25T11:15:46;97765.59;;;1.01;100.00
25080;BME280;13071;48.868;9.996;2023-01-25T11:18:17;97764.94;;;1.11;100.00
25080;BME280;13071;48.868;9.996;2023-01-25T11:20:44;97764.47;;;0.97;100.00
25080;BME280;13071;48.868;9.996;2023-01-25T11:23:21;97767.94;;;0.98;100.00
25080;BME280;13071;48.868;9.996;2023-01-25T11:25:49;97763.66;;;0.97;100.00
25080;BME280;13071;48.868;9.996;2023-01-25T11:28:18;97762.38;;;1.16;100.00
25080;BME280;13071;48.868;9.996;2023-01-25T11:30:45;97759.75;;;0.88;100.00
25080;BME280;13071;48.868;9.996;2023-01-25T11:33:14;97758.38;;;0.85;100.00
25080;BME280;13071;48.868;9.996;2023-01-25T11:35:52;97740.13;;;1.10;100.00
25080;BME280;13071;48.868;9.996;2023-01-25T11:38:27;97740.28;;;1.04;100.00
25080;BME280;13071;48.868;9.996;2023-01-25T11:41:00;97736.09;;;1.24;100.00
25080;BME280;13071;48.868;9.996;2023-01-25T11:43:51;97731.81;;;1.23;99.52
25080;BME280;13071;48.868;9.996;2023-01-25T11:46:35;97722.53;;;1.26;99.43
25080;BME280;13071;48.868;9.996;2023-01-25T11:49:26;97715.19;;;1.33;98.15
25080;BME280;13071;48.868;9.996;2023-01-25T11:52:06;97710.53;;;1.28;98.41
25080;BME280;13071;48.868;9.996;2023-01-25T11:54:47;97705.06;;;1.35;98.50
25080;BME280;13071;48.868;9.996;2023-01-25T11:57:25;97700.59;;;1.41;98.03
25080;BME280;13071;48.868;9.996;2023-01-25T12:00:04;97695.78;;;1.38;98.33
25080;BME280;13071;48.868;9.996;2023-01-25T12:03:06;97681.84;;;1.36;98.18
25080;BME280;13071;48.868;9.996;2023-01-25T12:05:47;97678.81;;;1.27;98.16
25080;BME280;13071;48.868;9.996;2023-01-25T12:08:44;97665.63;;;1.20;98.52
25080;BME280;13071;48.868;9.996;2023-01-25T12:11:29;97666.44;;;1.21;98.28
25080;BME280;13071;48.868;9.996;2023-01-25T12:14:03;97661.16;;;0.88;99.88
25080;BME280;13071;48.868;9.996;2023-01-25T12:16:55;97656.78;;;0.98;100.00
25080;BME280;13071;48.868;9.996;2023-01-25T12:19:41;97654.16;;;1.20;99.19
25080;BME280;13071;48.868;9.996;2023-01-25T12:22:23;97642.38;;;0.99;99.63
25080;BME280;13071;48.868;9.996;2023-01-25T12:25:00;97648.38;;;1.06;100.00
25080;BME280;13071;48.868;9.996;2023-01-25T12:27:41;97637.63;;;1.01;100.00
25080;BME280;13071;48.868;9.996;2023-01-25T12:30:20;97628.84;;;0.67;100.00
25080;BME280;13071;48.868;9.996;2023-01-25T12:32:53;97622.34;;;1.13;100.00
25080;BME280;13071;48.868;9.996;2023-01-25T12:35:27;97623.09;;;0.92;99.21
25080;BME280;13071;48.868;9.996;2023-01-25T12:38:00;97612.31;;;1.04;98.82
25080;BME280;13071;48.868;9.996;2023-01-25T12:40:39;97604.41;;;1.09;99.14
25080;BME280;13071;48.868;9.996;2023-01-25T12:43:13;97598.66;;;1.17;98.92
25080;BME280;13071;48.868;9.996;2023-01-25T12:45:44;97591.19;;;0.97;100.00
25080;BME280;13071;48.868;9.996;2023-01-25T12:48:15;97593.44;;;1.05;99.91
25080;BME280;13071;48.868;9.996;2023-01-25T12:50:47;97586.16;;;1.17;99.13
25080;BME280;13071;48.868;9.996;2023-01-25T12:53:19;97587.88;;;0.90;99.23
25080;BME280;13071;48.868;9.996;2023-01-25T12:55:47;97577.25;;;1.12;100.00
25080;BME280;13071;48.868;9.996;2023-01-25T12:58:20;97577.44;;;1.05;99.85
25080;BME280;13071;48.868;9.996;2023-01-25T13:00:53;97575.28;;;1.02;100.00
25080;BME280;13071;48.868;9.996;2023-01-25T13:03:28;97578.09;;;0.96;100.00
25080;BME280;13071;48.868;9.996;2023-01-25T13:06:01;97568.38;;;1.06;100.00
25080;BME280;13071;48.868;9.996;2023-01-25T13:08:41;97572.91;;;1.06;99.90
25080;BME280;13071;48.868;9.996;2023-01-25T13:11:15;97565.06;;;0.99;99.87
25080;BME280;13071;48.868;9.996;2023-01-25T13:13:46;97559.81;;;1.04;100.00
25080;BME280;13071;48.868;9.996;2023-01-25T13:16:37;97556.97;;;1.11;99.19